Terminal Aerodrome Forecast
Issued by NWS

Home | Current Version | Previous Version | Graphics & Text | Print | Product List | Glossary Off
Versions: 1 2 3 4 5 6 7 8 9 10 11 12 13 14 15 16

000
FTUS42 KMHX 252054 AAB
TAFOAJ
TAF AMD
KOAJ 252054Z 2521/2618 36010KT P6SM BKN025
     FM260000 02010KT P6SM OVC015
     FM261600 36015G25KT P6SM VCSH BKN015
      AMD LTD TO CLD VIS AND WIND=

USA.gov is the U.S. government's official web portal to all federal, state and local government web resources and services.